createdAt,value
2022-12-22T00:00:52.315Z,84.60
2022-12-22T00:03:54.274Z,84.40
2022-12-22T00:06:56.178Z,84.60
2022-12-22T00:09:58.151Z,84.90
2022-12-22T00:13:00.279Z,84.80
2022-12-22T00:16:02.303Z,85.60
2022-12-22T00:19:11.509Z,85.70
2022-12-22T00:22:24.802Z,85.90
2022-12-22T00:25:26.885Z,86.30
2022-12-22T00:28:31.321Z,86.10
2022-12-22T00:31:33.251Z,86.80
2022-12-22T00:34:41.440Z,87.10
2022-12-22T00:37:43.311Z,87.40
2022-12-22T00:40:45.237Z,87.90
2022-12-22T00:43:47.105Z,88.60
2022-12-22T00:46:49.027Z,89.30
2022-12-22T00:49:51.195Z,89.50
2022-12-22T00:52:53.216Z,89.50
2022-12-22T00:55:55.184Z,89.50
2022-12-22T00:58:59.650Z,90.00
2022-12-22T01:02:01.591Z,89.80
2022-12-22T01:05:03.635Z,90.20
2022-12-22T01:08:05.732Z,90.00
2022-12-22T01:11:08.222Z,90.10
2022-12-22T01:14:12.702Z,90.30
2022-12-22T01:17:14.792Z,90.40
2022-12-22T01:20:16.754Z,90.60
2022-12-22T01:23:18.793Z,90.80
2022-12-22T01:26:21.427Z,91.00
2022-12-22T01:29:23.267Z,91.10
2022-12-22T01:32:25.297Z,90.90
2022-12-22T01:35:31.426Z,90.80
2022-12-22T01:38:33.403Z,90.90
2022-12-22T01:41:36.130Z,90.70
2022-12-22T01:44:38.031Z,90.80
2022-12-22T01:47:39.977Z,90.50
2022-12-22T01:50:42.793Z,90.10
2022-12-22T01:53:45.519Z,90.10
2022-12-22T01:56:47.995Z,89.90
2022-12-22T01:59:50.023Z,89.80
2022-12-22T02:02:52.072Z,89.50
2022-12-22T02:06:31.936Z,89.00
2022-12-22T02:10:02.972Z,89.20
2022-12-22T02:13:22.273Z,88.80
2022-12-22T02:16:35.627Z,89.40
2022-12-22T02:20:07.451Z,89.30
2022-12-22T02:23:15.050Z,89.10
2022-12-22T02:26:33.686Z,88.70
2022-12-22T02:29:43.354Z,88.80
2022-12-22T02:32:47.161Z,89.00
2022-12-22T02:36:06.259Z,88.90
2022-12-22T02:39:39.205Z,89.00
2022-12-22T02:43:02.297Z,88.80
2022-12-22T02:46:25.839Z,88.80
2022-12-22T02:49:53.545Z,88.70
2022-12-22T02:52:56.135Z,88.70
2022-12-22T02:56:02.640Z,88.60
2022-12-22T02:59:04.831Z,88.80
2022-12-22T03:02:06.915Z,88.80
2022-12-22T03:05:08.926Z,88.90
2022-12-22T03:08:10.932Z,88.90
2022-12-22T03:11:15.438Z,88.90
2022-12-22T03:14:17.344Z,88.90
2022-12-22T03:17:19.311Z,88.80
2022-12-22T03:20:21.264Z,89.10
2022-12-22T03:23:23.195Z,88.80
2022-12-22T03:26:26.369Z,88.80
2022-12-22T03:29:28.735Z,88.40
2022-12-22T03:32:30.719Z,88.50
2022-12-22T03:35:32.776Z,88.50
2022-12-22T03:38:34.963Z,88.50
2022-12-22T03:41:36.935Z,88.50
2022-12-22T03:44:38.848Z,88.10
2022-12-22T03:47:40.737Z,88.40
2022-12-22T03:50:43.899Z,89.00
2022-12-22T03:53:45.891Z,89.10
2022-12-22T03:56:49.810Z,89.40
2022-12-22T03:59:51.691Z,89.40
2022-12-22T04:02:53.682Z,89.80
2022-12-22T04:05:55.625Z,89.90
2022-12-22T04:08:57.790Z,90.30
2022-12-22T04:11:59.739Z,90.60
2022-12-22T04:15:01.610Z,91.00
2022-12-22T04:18:03.619Z,91.20
2022-12-22T04:21:05.733Z,91.50
2022-12-22T04:24:10.791Z,91.70
2022-12-22T04:27:12.826Z,91.60
2022-12-22T04:30:16.319Z,91.60
2022-12-22T04:33:18.739Z,92.00
2022-12-22T04:36:20.766Z,91.70
2022-12-22T04:39:22.844Z,91.80
2022-12-22T04:42:24.952Z,91.40
2022-12-22T04:45:27.005Z,91.20
2022-12-22T04:48:30.077Z,91.10
2022-12-22T04:51:31.941Z,91.00
2022-12-22T04:54:36.692Z,91.00
2022-12-22T04:57:44.645Z,90.70
2022-12-22T05:00:49.019Z,90.60
2022-12-22T05:03:51.374Z,90.60
2022-12-22T05:06:53.605Z,90.60
2022-12-22T05:09:55.534Z,90.60
2022-12-22T05:12:57.954Z,90.80
2022-12-22T05:16:08.408Z,90.40
2022-12-22T05:19:12.943Z,90.40
2022-12-22T05:22:14.966Z,90.10
2022-12-22T05:25:18.277Z,90.10
2022-12-22T05:28:20.704Z,89.70
2022-12-22T05:31:24.988Z,89.80
2022-12-22T05:34:27.215Z,89.50
2022-12-22T05:37:29.973Z,89.40
2022-12-22T05:40:31.922Z,89.60
2022-12-22T05:43:35.216Z,88.90
2022-12-22T05:46:37.429Z,89.00
2022-12-22T05:49:40.936Z,89.10
2022-12-22T05:52:43.401Z,88.30
2022-12-22T05:55:45.724Z,88.40
2022-12-22T05:58:48.375Z,88.70
2022-12-22T06:01:50.565Z,88.60
2022-12-22T06:04:52.828Z,88.60
2022-12-22T06:07:54.835Z,89.10
2022-12-22T06:10:58.604Z,88.90
2022-12-22T06:14:00.688Z,89.10
2022-12-22T06:17:02.930Z,88.90
2022-12-22T06:20:06.876Z,89.00
2022-12-22T06:23:10.569Z,89.20
2022-12-22T06:26:12.545Z,89.40
2022-12-22T06:29:14.591Z,89.20
2022-12-22T06:32:16.634Z,89.20
2022-12-22T06:35:18.779Z,89.20
2022-12-22T06:38:20.756Z,89.10
2022-12-22T06:41:23.034Z,89.40
2022-12-22T06:44:24.980Z,89.40
2022-12-22T06:47:27.406Z,88.90
2022-12-22T06:50:29.583Z,88.40
2022-12-22T06:53:31.583Z,88.40
2022-12-22T06:56:33.661Z,87.60
2022-12-22T06:59:35.838Z,87.50
2022-12-22T07:02:37.984Z,87.40
2022-12-22T07:05:43.382Z,87.40
2022-12-22T07:08:46.783Z,86.60
2022-12-22T07:11:55.191Z,86.70
2022-12-22T07:14:57.298Z,85.80
2022-12-22T07:17:59.469Z,86.20
2022-12-22T07:21:05.089Z,85.10
2022-12-22T07:24:07.837Z,84.90
2022-12-22T07:27:10.862Z,84.80
2022-12-22T07:30:13.363Z,85.10
2022-12-22T07:33:15.510Z,84.60
2022-12-22T07:36:20.394Z,84.70
2022-12-22T07:39:22.530Z,84.60
2022-12-22T07:42:24.584Z,84.30
2022-12-22T07:45:28.277Z,84.50
2022-12-22T07:48:30.316Z,83.50
2022-12-22T07:51:35.639Z,82.80
2022-12-22T07:54:41.726Z,82.30
2022-12-22T07:57:44.610Z,82.50
2022-12-22T08:00:46.759Z,82.30
2022-12-22T08:03:51.899Z,82.10
2022-12-22T08:06:55.355Z,82.40
2022-12-22T08:09:57.289Z,82.50
2022-12-22T08:12:59.460Z,82.40
2022-12-22T08:16:06.233Z,81.50
2022-12-22T08:19:08.454Z,81.80
2022-12-22T08:22:10.480Z,81.40
2022-12-22T08:25:12.641Z,81.20
2022-12-22T08:28:15.444Z,81.40
2022-12-22T08:31:19.415Z,81.00
2022-12-22T08:34:21.807Z,81.50
2022-12-22T08:37:29.141Z,81.00
2022-12-22T08:40:32.659Z,81.10
2022-12-22T08:43:35.280Z,80.70
2022-12-22T08:46:37.258Z,80.80
2022-12-22T08:49:39.335Z,81.00
2022-12-22T08:52:41.503Z,81.40
2022-12-22T08:55:52.097Z,81.30
2022-12-22T08:58:54.173Z,81.50
2022-12-22T09:01:56.456Z,82.10
2022-12-22T09:04:58.895Z,82.40
2022-12-22T09:08:00.906Z,83.20
2022-12-22T09:11:06.103Z,83.40
2022-12-22T09:14:09.982Z,84.40
2022-12-22T09:17:12.047Z,85.40
2022-12-22T09:20:14.648Z,85.90
2022-12-22T09:23:16.626Z,86.90
2022-12-22T09:26:21.891Z,87.20
2022-12-22T09:29:24.004Z,87.20
2022-12-22T09:32:27.418Z,87.10
2022-12-22T09:35:31.892Z,87.50
2022-12-22T09:38:34.070Z,87.40
2022-12-22T09:41:46.486Z,87.50
2022-12-22T09:44:54.467Z,87.30
2022-12-22T09:47:56.688Z,87.20
2022-12-22T09:50:58.777Z,87.20
2022-12-22T09:54:01.700Z,87.60
2022-12-22T09:57:06.756Z,87.50
2022-12-22T10:00:17.288Z,87.50
2022-12-22T10:04:00.048Z,87.50
2022-12-22T10:07:21.557Z,87.00
2022-12-22T10:10:27.553Z,87.60
2022-12-22T10:13:29.690Z,87.60
2022-12-22T10:16:32.013Z,87.50
2022-12-22T10:19:34.061Z,87.60
2022-12-22T10:22:47.773Z,87.70
2022-12-22T10:26:32.271Z,87.40
2022-12-22T10:29:26.528Z,87.50
2022-12-22T10:32:28.576Z,87.80
2022-12-22T10:35:49.073Z,88.20
2022-12-22T10:39:04.389Z,89.00
2022-12-22T10:42:14.419Z,89.20
2022-12-22T10:45:23.215Z,89.60
2022-12-22T10:48:33.530Z,89.20
2022-12-22T10:51:35.892Z,89.10
2022-12-22T10:54:38.278Z,88.80
2022-12-22T10:57:40.309Z,88.90
2022-12-22T11:00:43.083Z,89.00
2022-12-22T11:03:45.157Z,89.50
2022-12-22T11:06:48.069Z,89.30
2022-12-22T11:09:51.825Z,89.40
2022-12-22T11:13:17.042Z,89.30
2022-12-22T11:16:43.829Z,89.00
2022-12-22T11:20:04.204Z,89.30
2022-12-22T11:23:21.515Z,89.50
2022-12-22T11:26:43.806Z,89.00
2022-12-22T11:30:06.557Z,88.40
2022-12-22T11:33:24.861Z,88.30
2022-12-22T11:36:57.338Z,88.50
2022-12-22T11:40:12.118Z,89.20
2022-12-22T11:43:52.521Z,89.20
2022-12-22T11:47:14.329Z,89.40
2022-12-22T12:03:47.435Z,91.20
2022-12-22T12:07:38.652Z,91.50
2022-12-22T12:10:57.937Z,91.40
2022-12-22T12:14:17.891Z,91.30
2022-12-22T12:17:28.711Z,91.60
2022-12-22T12:20:52.129Z,92.10
2022-12-22T12:24:16.499Z,92.20
2022-12-22T12:27:36.325Z,92.20
2022-12-22T12:30:59.162Z,92.30
2022-12-22T12:34:09.886Z,92.30
2022-12-22T12:37:30.700Z,91.90
2022-12-22T12:40:32.427Z,91.90
2022-12-22T12:43:35.220Z,91.90
2022-12-22T12:46:52.141Z,91.80
2022-12-22T12:49:56.627Z,92.10
2022-12-22T12:53:11.111Z,92.30
2022-12-22T12:56:12.990Z,92.40
2022-12-22T12:59:40.515Z,92.30
2022-12-22T13:02:57.158Z,92.50
2022-12-22T13:06:04.116Z,92.60
2022-12-22T13:09:39.836Z,92.70
2022-12-22T13:12:37.950Z,92.70
2022-12-22T13:15:42.871Z,92.50
2022-12-22T13:18:51.931Z,92.40
2022-12-22T13:21:55.381Z,92.00
2022-12-22T13:25:02.067Z,92.00
2022-12-22T13:28:04.195Z,91.80
2022-12-22T13:31:50.687Z,91.80
2022-12-22T13:35:32.665Z,91.90
2022-12-22T13:38:37.737Z,92.40
2022-12-22T13:41:41.965Z,92.40
2022-12-22T13:44:44.299Z,92.30
2022-12-22T13:47:47.759Z,92.20
2022-12-22T13:50:58.422Z,92.20
2022-12-22T13:54:09.333Z,92.20
2022-12-22T13:57:17.988Z,92.30
2022-12-22T14:00:23.173Z,92.00
2022-12-22T14:03:50.263Z,91.40
2022-12-22T14:06:47.015Z,91.90
2022-12-22T14:09:55.265Z,91.90
2022-12-22T14:12:57.298Z,91.80
2022-12-22T14:16:03.581Z,91.60
2022-12-22T14:19:05.597Z,91.80
2022-12-22T14:22:11.209Z,91.70
2022-12-22T14:25:19.632Z,91.80
2022-12-22T14:28:41.386Z,91.90
2022-12-22T14:32:01.312Z,91.80
2022-12-22T14:35:03.569Z,91.70
2022-12-22T14:38:05.372Z,91.60
2022-12-22T14:41:13.397Z,91.80
2022-12-22T14:44:32.075Z,91.70
2022-12-22T14:47:37.498Z,91.80
2022-12-22T14:50:51.964Z,91.30
2022-12-22T14:53:56.737Z,91.40
2022-12-22T14:57:15.560Z,91.20
2022-12-22T15:00:23.841Z,90.70
2022-12-22T15:03:29.910Z,90.40
2022-12-22T15:06:31.929Z,89.40
2022-12-22T15:10:13.261Z,89.40
2022-12-22T15:12:59.908Z,89.10
2022-12-22T15:16:02.799Z,89.10
2022-12-22T15:19:05.863Z,88.60
2022-12-22T15:22:08.408Z,88.50
2022-12-22T15:25:20.289Z,88.10
2022-12-22T15:28:22.331Z,87.90
2022-12-22T15:31:24.484Z,88.40
2022-12-22T15:34:31.249Z,87.70
2022-12-22T15:37:33.215Z,87.70
2022-12-22T15:40:35.221Z,87.50
2022-12-22T15:43:57.262Z,87.50
2022-12-22T15:46:59.906Z,87.10
2022-12-22T15:50:02.394Z,87.60
2022-12-22T15:53:04.923Z,88.00
2022-12-22T15:56:17.220Z,87.30
2022-12-22T15:59:28.026Z,87.10
2022-12-22T16:02:30.221Z,87.00
2022-12-22T16:05:36.299Z,87.30
2022-12-22T16:08:40.565Z,86.90
2022-12-22T16:11:42.527Z,86.90
2022-12-22T16:14:50.491Z,86.90
2022-12-22T16:17:52.899Z,87.20
2022-12-22T16:20:55.680Z,87.10
2022-12-22T16:23:58.259Z,87.00
2022-12-22T16:27:00.257Z,87.10
2022-12-22T16:30:03.133Z,87.20
2022-12-22T16:33:04.995Z,87.60
2022-12-22T16:39:14.633Z,88.10
2022-12-22T16:45:36.865Z,88.60
2022-12-22T16:48:45.138Z,88.90
2022-12-22T16:51:50.309Z,89.20
2022-12-22T16:54:53.024Z,89.30
2022-12-22T16:57:55.470Z,89.80
2022-12-22T17:00:57.383Z,89.80
2022-12-22T17:04:05.810Z,89.70
2022-12-22T17:07:09.855Z,89.80
2022-12-22T17:10:15.511Z,89.60
2022-12-22T17:13:18.242Z,89.60
2022-12-22T17:16:23.008Z,89.60
2022-12-22T17:19:25.016Z,89.60
2022-12-22T17:22:29.696Z,89.20
2022-12-22T17:25:31.946Z,89.50
2022-12-22T17:28:35.846Z,89.30
2022-12-22T17:31:37.862Z,89.40
2022-12-22T17:34:40.011Z,89.00
2022-12-22T17:37:42.829Z,88.80
2022-12-22T17:40:45.409Z,88.90
2022-12-22T17:43:47.195Z,88.80
2022-12-22T17:46:55.701Z,88.40
2022-12-22T17:50:03.837Z,88.40
2022-12-22T17:53:07.012Z,88.40
2022-12-22T17:56:18.347Z,88.40
2022-12-22T17:59:20.292Z,88.50
2022-12-22T18:02:24.027Z,88.40
2022-12-22T18:05:28.897Z,88.50
2022-12-22T18:08:31.171Z,88.40
2022-12-22T18:11:33.545Z,88.40
2022-12-22T18:14:35.526Z,88.10
2022-12-22T18:17:37.559Z,87.90
2022-12-22T18:20:39.879Z,87.90
2022-12-22T18:23:49.691Z,87.70
2022-12-22T18:26:52.605Z,87.50
2022-12-22T18:30:00.654Z,87.40
2022-12-22T18:33:02.507Z,87.40
2022-12-22T18:39:18.126Z,87.30
2022-12-22T18:42:22.955Z,87.30
2022-12-22T18:45:27.125Z,87.40
2022-12-22T18:48:29.061Z,87.30
2022-12-22T18:51:31.055Z,87.60
2022-12-22T18:54:32.982Z,88.10
2022-12-22T18:57:35.365Z,88.50
2022-12-22T19:00:37.460Z,89.20
2022-12-22T19:03:39.507Z,89.10
2022-12-22T19:06:41.443Z,89.30
2022-12-22T19:09:43.822Z,89.90
2022-12-22T19:12:50.127Z,90.20
2022-12-22T19:15:52.643Z,90.40
2022-12-22T19:18:54.713Z,90.70
2022-12-22T19:21:56.532Z,90.50
2022-12-22T19:24:58.398Z,90.60
2022-12-22T19:28:07.271Z,90.70
2022-12-22T19:31:16.502Z,90.90
2022-12-22T19:34:21.194Z,91.10
2022-12-22T19:37:23.134Z,91.10
2022-12-22T19:40:29.583Z,91.20
2022-12-22T19:43:33.832Z,91.30
2022-12-22T19:46:36.071Z,91.30
2022-12-22T19:49:38.082Z,91.80
2022-12-22T19:52:39.916Z,91.90
2022-12-22T19:55:46.831Z,91.80
2022-12-22T19:58:49.127Z,91.80
2022-12-22T20:01:51.181Z,91.70
2022-12-22T20:05:01.009Z,91.80
2022-12-22T20:08:02.942Z,91.60
2022-12-22T20:11:12.936Z,91.80
2022-12-22T20:14:18.561Z,91.80
2022-12-22T20:17:21.138Z,91.80
2022-12-22T20:20:31.861Z,91.70
2022-12-22T20:23:36.264Z,91.90
2022-12-22T20:26:38.139Z,91.80
2022-12-22T20:29:40.009Z,91.70
2022-12-22T20:32:41.911Z,91.70
2022-12-22T20:35:51.642Z,92.10
2022-12-22T20:38:55.129Z,91.80
2022-12-22T20:41:57.101Z,91.40
2022-12-22T20:45:02.948Z,91.30
2022-12-22T20:48:06.363Z,91.20
2022-12-22T20:51:13.816Z,91.20
2022-12-22T20:54:16.658Z,91.30
2022-12-22T20:57:18.701Z,91.40
2022-12-22T21:00:26.951Z,91.40
2022-12-22T21:03:29.140Z,91.60
2022-12-22T21:06:36.961Z,91.70
2022-12-22T21:09:39.980Z,91.70
2022-12-22T21:12:41.975Z,91.60
2022-12-22T21:15:45.790Z,91.80
2022-12-22T21:18:47.631Z,91.90
2022-12-22T21:21:49.516Z,92.00
2022-12-22T21:24:51.467Z,91.90
2022-12-22T21:27:53.591Z,91.90
2022-12-22T21:30:55.573Z,91.90
2022-12-22T21:33:58.030Z,92.00
2022-12-22T21:37:02.567Z,92.10
2022-12-22T21:40:13.871Z,92.10
2022-12-22T21:43:16.478Z,91.80
2022-12-22T21:46:18.545Z,91.80
2022-12-22T21:49:23.020Z,91.80
2022-12-22T21:52:25.149Z,91.80
2022-12-22T21:55:35.383Z,91.60
2022-12-22T21:58:37.289Z,91.40
2022-12-22T22:01:41.159Z,91.30
2022-12-22T22:04:46.748Z,91.60
2022-12-22T22:07:55.407Z,91.60
2022-12-22T22:10:59.663Z,91.60
2022-12-22T22:14:01.504Z,91.70
2022-12-22T22:17:03.456Z,91.80
2022-12-22T22:20:07.983Z,91.90
2022-12-22T22:23:12.971Z,92.20
2022-12-22T22:26:14.785Z,92.40
2022-12-22T22:29:16.734Z,92.50
2022-12-22T22:32:19.106Z,92.60
2022-12-22T22:35:25.353Z,92.60
2022-12-22T22:38:27.147Z,92.60
2022-12-22T22:41:29.701Z,92.60
2022-12-22T22:44:31.491Z,92.80
2022-12-22T22:47:33.655Z,92.80
2022-12-22T22:50:35.574Z,92.90
2022-12-22T22:53:37.454Z,92.90
2022-12-22T22:56:39.671Z,93.00
2022-12-22T22:59:42.744Z,93.00
2022-12-22T23:02:45.349Z,93.10
2022-12-22T23:05:49.890Z,93.20
2022-12-22T23:08:51.839Z,93.30
2022-12-22T23:11:54.024Z,93.20
2022-12-22T23:14:56.050Z,93.20
2022-12-22T23:17:57.923Z,93.10
2022-12-22T23:21:03.398Z,93.10
2022-12-22T23:24:05.691Z,93.20
2022-12-22T23:27:07.616Z,93.20
2022-12-22T23:30:10.282Z,93.20
2022-12-22T23:33:12.203Z,93.20
2022-12-22T23:36:14.599Z,93.10
2022-12-22T23:39:16.515Z,93.20
2022-12-22T23:42:18.459Z,93.10
2022-12-22T23:45:20.668Z,93.00
2022-12-22T23:48:22.938Z,93.00
2022-12-22T23:51:27.067Z,93.00
2022-12-22T23:54:31.935Z,93.10
2022-12-22T23:57:33.860Z,92.90
